createdAt,value
2023-04-26T00:01:35.627Z,96.86
2023-04-26T00:04:03.453Z,96.29
2023-04-26T00:06:30.730Z,96.40
2023-04-26T00:08:57.886Z,96.14
2023-04-26T00:11:25.004Z,95.18
2023-04-26T00:13:52.194Z,95.11
2023-04-26T00:16:20.317Z,94.93
2023-04-26T00:18:47.452Z,95.09
2023-04-26T00:21:14.711Z,94.94
2023-04-26T00:23:42.333Z,94.92
2023-04-26T00:26:09.412Z,94.94
2023-04-26T00:28:36.565Z,95.94
2023-04-26T00:31:03.845Z,95.88
2023-04-26T00:33:30.999Z,95.37
2023-04-26T00:35:57.905Z,96.08
2023-04-26T00:38:24.966Z,96.13
2023-04-26T00:40:51.989Z,96.21
2023-04-26T00:43:19.311Z,97.65
2023-04-26T00:45:46.480Z,97.25
2023-04-26T00:48:13.629Z,97.15
2023-04-26T00:50:40.755Z,96.71
2023-04-26T00:53:09.035Z,96.48
2023-04-26T00:55:36.885Z,96.46
2023-04-26T00:58:03.986Z,96.17
2023-04-26T01:00:31.229Z,96.53
2023-04-26T01:02:58.574Z,95.80
2023-04-26T01:05:26.029Z,96.31
2023-04-26T01:07:53.563Z,96.19
2023-04-26T01:10:20.632Z,96.01
2023-04-26T01:12:48.655Z,96.36
2023-04-26T01:15:18.323Z,96.78
2023-04-26T01:17:48.491Z,97.01
2023-04-26T01:20:15.679Z,96.80
2023-04-26T01:22:42.819Z,97.11
2023-04-26T01:25:12.605Z,97.84
2023-04-26T01:27:40.076Z,98.56
2023-04-26T01:30:08.499Z,99.08
2023-04-26T01:32:35.801Z,99.06
2023-04-26T01:35:03.179Z,99.37
2023-04-26T01:37:30.210Z,99.97
2023-04-26T01:39:59.895Z,99.28
2023-04-26T01:42:27.328Z,100.00
2023-04-26T01:44:54.363Z,100.00
2023-04-26T01:47:22.579Z,100.00
2023-04-26T01:49:49.630Z,100.00
2023-04-26T01:52:16.888Z,100.00
2023-04-26T01:54:46.248Z,100.00
2023-04-26T01:57:13.320Z,100.00
2023-04-26T01:59:40.410Z,100.00
2023-04-26T02:02:07.658Z,100.00
2023-04-26T02:04:38.312Z,100.00
2023-04-26T02:07:05.446Z,100.00
2023-04-26T02:09:32.604Z,100.00
2023-04-26T02:11:59.700Z,100.00
2023-04-26T02:14:26.901Z,100.00
2023-04-26T02:16:54.056Z,100.00
2023-04-26T02:19:21.157Z,100.00
2023-04-26T02:21:52.883Z,100.00
2023-04-26T02:24:20.322Z,100.00
2023-04-26T02:26:47.448Z,100.00
2023-04-26T02:29:15.024Z,100.00
2023-04-26T02:31:42.375Z,100.00
2023-04-26T02:34:09.784Z,100.00
2023-04-26T02:36:37.146Z,100.00
2023-04-26T02:39:04.285Z,100.00
2023-04-26T02:41:34.487Z,100.00
2023-04-26T02:44:01.706Z,100.00
2023-04-26T02:46:28.838Z,100.00
2023-04-26T02:48:55.987Z,100.00
2023-04-26T02:51:23.780Z,100.00
2023-04-26T02:53:50.954Z,100.00
2023-04-26T02:56:19.511Z,100.00
2023-04-26T02:58:47.209Z,100.00
2023-04-26T03:01:15.437Z,100.00
2023-04-26T03:03:43.036Z,100.00
2023-04-26T03:06:10.197Z,100.00
2023-04-26T03:08:37.278Z,100.00
2023-04-26T03:11:04.573Z,100.00
2023-04-26T03:13:31.961Z,100.00
2023-04-26T03:15:59.559Z,100.00
2023-04-26T03:18:26.729Z,100.00
2023-04-26T03:20:54.368Z,100.00
2023-04-26T03:23:24.436Z,100.00
2023-04-26T03:25:52.570Z,100.00
2023-04-26T03:28:19.811Z,100.00
2023-04-26T03:30:49.976Z,100.00
2023-04-26T03:33:17.634Z,100.00
2023-04-26T03:35:44.824Z,100.00
2023-04-26T03:38:11.879Z,100.00
2023-04-26T03:40:40.056Z,100.00
2023-04-26T03:43:07.597Z,100.00
2023-04-26T03:45:35.078Z,100.00
2023-04-26T03:48:02.552Z,100.00
2023-04-26T03:50:29.739Z,100.00
2023-04-26T03:52:57.053Z,100.00
2023-04-26T03:55:24.327Z,100.00
2023-04-26T03:57:51.588Z,100.00
2023-04-26T04:00:18.621Z,100.00
2023-04-26T04:03:07.469Z,99.73
2023-04-26T04:05:35.419Z,99.59
2023-04-26T04:08:03.889Z,98.83
2023-04-26T04:10:31.109Z,98.00
2023-04-26T04:12:58.218Z,97.68
2023-04-26T04:15:25.577Z,96.75
2023-04-26T04:17:54.278Z,96.19
2023-04-26T04:20:21.586Z,95.98
2023-04-26T04:22:48.975Z,95.11
2023-04-26T04:25:16.565Z,94.21
2023-04-26T04:27:43.751Z,95.17
2023-04-26T04:30:12.240Z,95.00
2023-04-26T04:32:40.558Z,95.28
2023-04-26T04:35:08.202Z,93.93
2023-04-26T04:37:35.620Z,94.38
2023-04-26T04:40:03.226Z,93.04
2023-04-26T04:42:32.833Z,91.73
2023-04-26T04:45:01.013Z,91.13
2023-04-26T04:47:47.898Z,90.81
2023-04-26T04:50:15.029Z,89.17
2023-04-26T04:52:43.228Z,87.36
2023-04-26T04:55:11.459Z,88.25
2023-04-26T04:57:40.702Z,87.42
2023-04-26T05:00:10.806Z,84.74
2023-04-26T05:02:44.502Z,84.29
2023-04-26T05:05:11.975Z,83.27
2023-04-26T05:07:39.262Z,81.33
2023-04-26T05:10:07.121Z,80.27
2023-04-26T05:12:35.404Z,80.70
2023-04-26T05:15:02.694Z,80.13
2023-04-26T05:17:32.577Z,78.93
2023-04-26T05:20:07.197Z,77.10
2023-04-26T05:22:36.865Z,77.67
2023-04-26T05:25:05.762Z,76.19
2023-04-26T05:27:33.036Z,75.45
2023-04-26T05:30:14.086Z,74.52
2023-04-26T05:33:01.115Z,74.88
2023-04-26T05:35:49.306Z,73.77
2023-04-26T05:38:16.728Z,73.77
2023-04-26T05:40:44.620Z,71.26
2023-04-26T05:43:12.130Z,70.88
2023-04-26T05:45:39.875Z,70.72
2023-04-26T05:48:07.259Z,67.45
2023-04-26T05:50:34.455Z,66.22
2023-04-26T05:53:01.570Z,64.94
2023-04-26T05:55:29.870Z,65.29
2023-04-26T05:57:57.003Z,63.61
2023-04-26T06:00:24.543Z,63.56
2023-04-26T06:02:52.004Z,62.39
2023-04-26T06:05:19.488Z,61.02
2023-04-26T06:07:47.612Z,62.31
2023-04-26T06:10:14.810Z,62.22
2023-04-26T06:12:42.085Z,61.33
2023-04-26T06:15:10.080Z,61.10
2023-04-26T06:17:39.153Z,61.74
2023-04-26T06:20:06.935Z,60.95
2023-04-26T06:22:34.130Z,58.91
2023-04-26T06:25:01.245Z,60.31
2023-04-26T06:27:28.521Z,60.04
2023-04-26T06:29:55.699Z,59.49
2023-04-26T06:32:24.347Z,60.60
2023-04-26T06:34:51.419Z,58.87
2023-04-26T06:37:18.488Z,58.79
2023-04-26T06:39:45.505Z,57.93
2023-04-26T06:42:13.174Z,58.09
2023-04-26T06:45:10.147Z,57.94
2023-04-26T06:47:37.803Z,58.03
2023-04-26T06:50:06.038Z,58.15
2023-04-26T06:52:33.253Z,57.49
2023-04-26T06:55:04.076Z,56.22
2023-04-26T06:57:32.632Z,56.88
2023-04-26T07:00:00.100Z,57.13
2023-04-26T07:02:27.339Z,56.65
2023-04-26T07:04:54.880Z,56.92
2023-04-26T07:07:22.096Z,56.60
2023-04-26T07:09:50.044Z,57.26
2023-04-26T07:12:17.114Z,57.45
2023-04-26T07:14:44.240Z,56.95
2023-04-26T07:17:11.579Z,56.22
2023-04-26T07:19:38.936Z,55.96
2023-04-26T07:22:06.183Z,55.81
2023-04-26T07:24:33.410Z,55.45
2023-04-26T07:27:02.103Z,54.56
2023-04-26T07:29:29.271Z,54.27
2023-04-26T07:31:57.387Z,54.84
2023-04-26T07:34:24.814Z,56.15
2023-04-26T07:36:51.967Z,56.28
2023-04-26T07:39:19.064Z,54.63
2023-04-26T07:41:46.357Z,54.62
2023-04-26T07:44:13.516Z,52.91
2023-04-26T07:46:41.056Z,51.92
2023-04-26T07:49:08.210Z,51.94
2023-04-26T07:51:36.534Z,52.09
2023-04-26T07:54:03.921Z,52.41
2023-04-26T07:56:31.290Z,52.98
2023-04-26T07:58:58.741Z,52.24
2023-04-26T08:01:26.248Z,52.53
2023-04-26T08:03:55.021Z,52.42
2023-04-26T08:06:22.836Z,51.78
2023-04-26T08:08:51.024Z,53.43
2023-04-26T08:11:18.444Z,53.86
2023-04-26T08:13:46.411Z,53.99
2023-04-26T08:16:13.759Z,52.55
2023-04-26T08:18:40.915Z,51.39
2023-04-26T08:21:07.998Z,52.66
2023-04-26T08:23:36.710Z,50.26
2023-04-26T08:26:04.754Z,51.36
2023-04-26T08:28:31.945Z,50.32
2023-04-26T08:30:59.014Z,50.39
2023-04-26T08:33:26.331Z,51.20
2023-04-26T08:35:53.517Z,49.48
2023-04-26T08:38:22.883Z,49.04
2023-04-26T08:40:51.861Z,48.85
2023-04-26T08:43:18.972Z,49.84
2023-04-26T08:45:49.469Z,50.07
2023-04-26T08:48:18.537Z,50.67
2023-04-26T08:50:48.977Z,50.11
2023-04-26T08:53:21.678Z,49.49
2023-04-26T08:55:50.272Z,48.59
2023-04-26T08:58:18.619Z,47.08
2023-04-26T09:00:46.451Z,47.91
2023-04-26T09:03:14.278Z,47.25
2023-04-26T09:05:45.823Z,46.13
2023-04-26T09:08:18.295Z,47.27
2023-04-26T09:10:45.727Z,46.45
2023-04-26T09:13:13.125Z,46.90
2023-04-26T09:15:40.616Z,46.89
2023-04-26T09:18:23.956Z,46.65
2023-04-26T09:21:08.428Z,46.24
2023-04-26T09:23:35.854Z,46.77
2023-04-26T09:26:17.283Z,47.54
2023-04-26T09:28:44.611Z,45.32
2023-04-26T09:31:12.382Z,45.70
2023-04-26T09:33:59.061Z,48.03
2023-04-26T09:36:26.394Z,46.90
2023-04-26T09:38:53.613Z,45.78
2023-04-26T09:41:21.060Z,46.27
2023-04-26T09:43:51.805Z,45.60
2023-04-26T09:46:25.208Z,46.11
2023-04-26T09:49:03.073Z,44.64
2023-04-26T09:51:30.227Z,44.10
2023-04-26T09:53:57.384Z,45.63
2023-04-26T09:56:24.434Z,44.62
2023-04-26T09:59:05.740Z,44.40
2023-04-26T10:01:33.506Z,44.26
2023-04-26T10:04:05.062Z,44.31
2023-04-26T10:06:33.115Z,44.45
2023-04-26T10:09:02.156Z,44.49
2023-04-26T10:11:29.896Z,44.50
2023-04-26T10:13:57.516Z,44.52
2023-04-26T10:16:24.706Z,44.40
2023-04-26T10:18:52.672Z,43.67
2023-04-26T10:21:27.381Z,44.09
2023-04-26T10:23:54.580Z,44.12
2023-04-26T10:26:48.603Z,43.87
2023-04-26T10:29:16.098Z,43.65
2023-04-26T10:32:09.648Z,44.19
2023-04-26T10:34:37.509Z,43.33
2023-04-26T10:37:08.563Z,43.86
2023-04-26T10:39:39.453Z,43.92
2023-04-26T10:42:26.607Z,43.20
2023-04-26T10:44:57.859Z,43.52
2023-04-26T10:47:33.269Z,42.15
2023-04-26T10:50:11.426Z,42.04
2023-04-26T10:53:02.058Z,42.34
2023-04-26T10:55:39.043Z,41.70
2023-04-26T10:58:29.961Z,41.39
2023-04-26T11:01:11.992Z,40.82
2023-04-26T11:03:41.339Z,42.08
2023-04-26T11:06:14.016Z,42.23
2023-04-26T11:08:41.727Z,41.15
2023-04-26T11:11:12.015Z,41.89
2023-04-26T11:13:41.284Z,41.37
2023-04-26T11:16:10.801Z,41.13
2023-04-26T11:18:43.281Z,40.94
2023-04-26T11:21:12.276Z,40.14
2023-04-26T11:23:41.044Z,40.64
2023-04-26T11:26:09.579Z,41.16
2023-04-26T11:28:38.121Z,42.07
2023-04-26T11:31:07.342Z,40.97
2023-04-26T11:33:34.599Z,39.79
2023-04-26T11:36:02.380Z,41.04
2023-04-26T11:38:30.105Z,40.30
2023-04-26T11:41:03.263Z,40.35
2023-04-26T11:43:40.296Z,40.38
2023-04-26T11:46:09.402Z,40.14
2023-04-26T11:48:38.628Z,39.29
2023-04-26T11:51:07.764Z,39.68
2023-04-26T11:53:39.688Z,38.41
2023-04-26T11:56:21.979Z,38.43
2023-04-26T11:58:51.594Z,38.63
2023-04-26T12:01:26.981Z,37.64
2023-04-26T12:03:59.002Z,37.98
2023-04-26T12:06:30.886Z,38.06
2023-04-26T12:08:58.025Z,39.04
2023-04-26T12:11:25.774Z,40.55
2023-04-26T12:13:52.818Z,42.04
2023-04-26T12:16:26.114Z,39.95
2023-04-26T12:18:57.011Z,40.17
2023-04-26T12:21:25.584Z,40.75
2023-04-26T12:23:52.968Z,40.46
2023-04-26T12:26:20.665Z,41.02
2023-04-26T12:28:47.808Z,40.72
2023-04-26T12:31:15.053Z,40.54
2023-04-26T12:33:42.353Z,40.39
2023-04-26T12:36:11.927Z,39.70
2023-04-26T12:38:40.742Z,40.63
2023-04-26T12:41:08.050Z,40.98
2023-04-26T12:43:35.162Z,41.27
2023-04-26T12:46:02.449Z,41.00
2023-04-26T12:48:29.576Z,41.03
2023-04-26T12:50:56.809Z,41.36
2023-04-26T12:53:23.882Z,41.22
2023-04-26T12:55:51.239Z,41.34
2023-04-26T12:58:19.041Z,41.51
2023-04-26T13:00:46.177Z,40.85
2023-04-26T13:03:14.975Z,42.14
2023-04-26T13:05:42.527Z,41.96
2023-04-26T13:08:09.709Z,42.01
2023-04-26T13:10:36.774Z,42.22
2023-04-26T13:13:04.027Z,41.15
2023-04-26T13:15:31.138Z,41.30
2023-04-26T13:17:58.333Z,42.28
2023-04-26T13:20:27.214Z,42.56
2023-04-26T13:22:55.741Z,42.49
2023-04-26T13:25:23.450Z,41.50
2023-04-26T13:27:53.673Z,41.23
2023-04-26T13:30:20.921Z,42.37
2023-04-26T13:32:48.213Z,41.03
2023-04-26T13:35:15.406Z,41.30
2023-04-26T13:37:42.806Z,41.94
2023-04-26T13:40:11.457Z,41.77
2023-04-26T13:42:39.642Z,41.63
2023-04-26T13:45:09.542Z,41.99
2023-04-26T13:47:37.078Z,41.38
2023-04-26T13:50:04.498Z,41.54
2023-04-26T13:52:31.859Z,41.97
2023-04-26T13:54:59.082Z,42.54
2023-04-26T13:57:26.238Z,43.34
2023-04-26T13:59:53.378Z,42.79
2023-04-26T14:02:21.634Z,42.87
2023-04-26T14:04:49.030Z,43.18
2023-04-26T14:07:17.220Z,42.82
2023-04-26T14:09:44.263Z,43.28
2023-04-26T14:12:11.553Z,43.61
2023-04-26T14:14:38.698Z,43.48
2023-04-26T14:17:05.739Z,43.70
2023-04-26T14:19:32.952Z,42.52
2023-04-26T14:22:00.051Z,42.53
2023-04-26T14:24:27.340Z,43.29
2023-04-26T14:26:54.363Z,44.06
2023-04-26T14:29:21.968Z,44.10
2023-04-26T14:31:49.287Z,43.75
2023-04-26T14:34:16.785Z,44.43
2023-04-26T14:36:43.898Z,44.35
2023-04-26T14:39:11.015Z,44.06
2023-04-26T14:41:38.085Z,44.63
2023-04-26T14:44:05.390Z,44.95
2023-04-26T14:46:32.605Z,44.60
2023-04-26T14:48:59.751Z,44.95
2023-04-26T14:51:27.483Z,45.46
2023-04-26T14:53:54.664Z,45.69
2023-04-26T14:56:22.093Z,45.42
2023-04-26T14:58:49.136Z,44.97
2023-04-26T15:01:16.195Z,45.29
2023-04-26T15:03:43.533Z,45.81
2023-04-26T15:06:10.868Z,45.59
2023-04-26T15:08:38.024Z,45.46
2023-04-26T15:11:05.205Z,45.61
2023-04-26T15:13:32.546Z,45.93
2023-04-26T15:16:06.795Z,46.09
2023-04-26T15:18:34.824Z,46.44
2023-04-26T15:21:01.921Z,46.44
2023-04-26T15:23:28.970Z,46.30
2023-04-26T15:26:02.161Z,46.43
2023-04-26T15:28:29.384Z,46.50
2023-04-26T15:31:08.940Z,46.39
2023-04-26T15:33:36.668Z,47.33
2023-04-26T15:36:04.088Z,47.02
2023-04-26T15:38:31.342Z,47.16
2023-04-26T15:40:58.409Z,47.22
2023-04-26T15:43:25.778Z,47.72
2023-04-26T15:45:53.522Z,47.87
2023-04-26T15:48:20.773Z,47.64
2023-04-26T15:50:48.151Z,47.65
2023-04-26T15:53:15.296Z,47.00
2023-04-26T15:55:42.460Z,46.60
2023-04-26T15:58:09.666Z,46.88
2023-04-26T16:00:37.263Z,47.07
2023-04-26T16:03:04.476Z,47.18
2023-04-26T16:05:31.851Z,46.95
2023-04-26T16:07:59.846Z,47.23
2023-04-26T16:10:27.171Z,47.97
2023-04-26T16:12:54.311Z,47.72
2023-04-26T16:15:21.810Z,47.78
2023-04-26T16:17:48.948Z,47.39
2023-04-26T16:20:16.538Z,47.04
2023-04-26T16:22:45.247Z,47.08
2023-04-26T16:25:12.565Z,46.53
2023-04-26T16:27:39.595Z,46.83
2023-04-26T16:30:07.258Z,46.73
2023-04-26T16:32:34.432Z,46.94
2023-04-26T16:35:01.598Z,46.46
2023-04-26T16:37:28.646Z,47.16
2023-04-26T16:39:58.604Z,47.04
2023-04-26T16:42:26.410Z,47.12
2023-04-26T16:44:55.026Z,46.98
2023-04-26T16:47:22.105Z,46.46
2023-04-26T16:49:49.200Z,46.25
2023-04-26T16:52:16.423Z,46.60
2023-04-26T16:54:43.747Z,47.07
2023-04-26T16:57:11.256Z,46.23
2023-04-26T16:59:38.301Z,47.49
2023-04-26T17:02:05.463Z,47.58
2023-04-26T17:04:33.827Z,47.17
2023-04-26T17:07:01.516Z,47.29
2023-04-26T17:09:28.759Z,47.90
2023-04-26T17:11:56.260Z,48.05
2023-04-26T17:14:23.469Z,48.06
2023-04-26T17:16:50.706Z,48.26
2023-04-26T17:19:17.977Z,47.54
2023-04-26T17:21:45.004Z,47.30
2023-04-26T17:24:12.108Z,47.77
2023-04-26T17:26:39.166Z,47.17
2023-04-26T17:29:06.465Z,47.54
2023-04-26T17:31:33.565Z,47.27
2023-04-26T17:34:02.019Z,47.27
2023-04-26T17:36:32.050Z,47.24
2023-04-26T17:38:59.169Z,47.52
2023-04-26T17:41:26.137Z,48.18
2023-04-26T17:43:53.190Z,48.20
2023-04-26T17:46:20.501Z,47.56
2023-04-26T17:48:47.682Z,47.73
2023-04-26T17:51:14.827Z,47.16
2023-04-26T17:53:42.005Z,47.77
2023-04-26T17:56:10.094Z,47.81
2023-04-26T17:58:37.625Z,47.35
2023-04-26T18:01:04.915Z,48.03
2023-04-26T18:03:35.760Z,48.63
2023-04-26T18:06:03.741Z,48.91
2023-04-26T18:08:31.201Z,48.94
2023-04-26T18:10:58.640Z,49.14
2023-04-26T18:13:26.081Z,49.22
2023-04-26T18:15:56.141Z,50.06
2023-04-26T18:18:24.523Z,50.25
2023-04-26T18:20:52.911Z,51.02
2023-04-26T18:23:20.244Z,50.92
2023-04-26T18:25:47.567Z,51.61
2023-04-26T18:28:15.008Z,52.11
2023-04-26T18:30:42.313Z,52.29
2023-04-26T18:33:09.386Z,53.29
2023-04-26T18:35:36.790Z,53.59
2023-04-26T18:38:03.976Z,54.44
2023-04-26T18:40:31.174Z,54.96
2023-04-26T18:42:58.917Z,54.87
2023-04-26T18:45:26.012Z,55.26
2023-04-26T18:47:55.260Z,55.91
2023-04-26T18:50:22.541Z,56.76
2023-04-26T18:52:49.593Z,57.27
2023-04-26T18:55:16.899Z,57.57
2023-04-26T18:57:43.972Z,58.06
2023-04-26T19:00:11.988Z,58.49
2023-04-26T19:02:41.860Z,58.88
2023-04-26T19:05:10.529Z,59.19
2023-04-26T19:07:37.769Z,59.83
2023-04-26T19:10:05.464Z,61.13
2023-04-26T19:12:32.642Z,60.97
2023-04-26T19:14:59.821Z,61.71
2023-04-26T19:17:27.064Z,61.56
2023-04-26T19:19:55.417Z,61.23
2023-04-26T19:22:22.576Z,61.16
2023-04-26T19:24:50.732Z,62.00
2023-04-26T19:27:17.993Z,62.39
2023-04-26T19:29:45.092Z,62.14
2023-04-26T19:32:12.104Z,62.15
2023-04-26T19:34:40.721Z,62.28
2023-04-26T19:37:07.796Z,62.82
2023-04-26T19:39:34.880Z,62.86
2023-04-26T19:42:03.461Z,62.69
2023-04-26T19:44:30.624Z,62.45
2023-04-26T19:46:57.817Z,62.26
2023-04-26T19:49:26.182Z,61.97
2023-04-26T19:51:54.873Z,61.81
2023-04-26T19:54:22.009Z,61.87
2023-04-26T19:56:49.080Z,61.46
2023-04-26T19:59:16.204Z,61.63
2023-04-26T20:01:43.381Z,60.97
2023-04-26T20:04:10.832Z,61.61
2023-04-26T20:06:38.049Z,61.67
2023-04-26T20:09:07.125Z,61.88
2023-04-26T20:11:34.418Z,62.73
2023-04-26T20:14:01.597Z,61.73
2023-04-26T20:16:28.784Z,62.28
2023-04-26T20:18:55.943Z,62.16
2023-04-26T20:21:23.019Z,62.53
2023-04-26T20:23:50.085Z,62.36
2023-04-26T20:26:17.273Z,62.54
2023-04-26T20:28:45.584Z,63.14
2023-04-26T20:31:12.625Z,63.21
2023-04-26T20:33:39.812Z,63.60
2023-04-26T20:36:07.283Z,63.93
2023-04-26T20:38:34.416Z,64.61
2023-04-26T20:41:01.462Z,65.58
2023-04-26T20:43:28.975Z,66.23
2023-04-26T20:45:56.105Z,66.40
2023-04-26T20:48:24.275Z,65.93
2023-04-26T20:50:54.344Z,66.12
2023-04-26T20:53:21.382Z,66.45
2023-04-26T20:55:48.477Z,65.39
2023-04-26T20:58:15.607Z,65.08
2023-04-26T21:00:42.732Z,65.47
2023-04-26T21:03:09.856Z,65.53
2023-04-26T21:05:37.016Z,65.40
2023-04-26T21:08:04.272Z,65.59
2023-04-26T21:10:31.442Z,65.73
2023-04-26T21:12:58.486Z,65.53
2023-04-26T21:15:25.749Z,65.33
2023-04-26T21:17:52.879Z,65.69
2023-04-26T21:20:20.026Z,65.48
2023-04-26T21:22:47.095Z,64.66
2023-04-26T21:25:17.166Z,65.05
2023-04-26T21:27:44.353Z,65.17
2023-04-26T21:30:12.115Z,65.57
2023-04-26T21:32:41.924Z,65.29
2023-04-26T21:35:11.037Z,65.79
2023-04-26T21:37:38.090Z,65.04
2023-04-26T21:40:06.743Z,65.46
2023-04-26T21:42:33.925Z,65.15
2023-04-26T21:45:01.254Z,64.30
2023-04-26T21:47:28.441Z,64.21
2023-04-26T21:49:55.958Z,63.81
2023-04-26T21:52:22.880Z,63.70
2023-04-26T21:54:52.369Z,63.94
2023-04-26T21:57:23.068Z,63.74
2023-04-26T21:59:51.076Z,63.71
2023-04-26T22:02:18.875Z,63.45
2023-04-26T22:04:46.049Z,63.54
2023-04-26T22:07:13.128Z,63.00
2023-04-26T22:09:40.087Z,63.43
2023-04-26T22:12:07.317Z,63.57
2023-04-26T22:14:34.372Z,63.87
2023-04-26T22:17:02.231Z,64.12
2023-04-26T22:19:29.328Z,64.52
2023-04-26T22:21:56.582Z,65.38
2023-04-26T22:24:23.663Z,65.74
2023-04-26T22:26:50.726Z,65.65
2023-04-26T22:29:17.822Z,66.01
2023-04-26T22:31:44.926Z,66.08
2023-04-26T22:34:12.048Z,66.17
2023-04-26T22:36:39.820Z,67.29
2023-04-26T22:39:07.175Z,67.41
2023-04-26T22:41:34.235Z,67.79
2023-04-26T22:44:01.388Z,68.02
2023-04-26T22:46:28.596Z,68.53
2023-04-26T22:48:55.710Z,68.76
2023-04-26T22:51:23.052Z,68.45
2023-04-26T22:53:50.197Z,69.24
2023-04-26T22:56:17.747Z,69.17
2023-04-26T22:58:44.941Z,69.95
2023-04-26T23:01:12.056Z,69.26
2023-04-26T23:03:39.231Z,69.25
2023-04-26T23:06:06.796Z,69.27
2023-04-26T23:08:33.867Z,68.80
2023-04-26T23:11:01.043Z,69.49
2023-04-26T23:13:29.654Z,69.53
2023-04-26T23:15:57.090Z,69.12
2023-04-26T23:18:26.658Z,68.95
2023-04-26T23:20:53.841Z,68.14
2023-04-26T23:23:21.151Z,68.16
2023-04-26T23:25:48.184Z,67.52
2023-04-26T23:28:15.295Z,67.23
2023-04-26T23:30:42.311Z,67.03
2023-04-26T23:33:09.483Z,67.19
2023-04-26T23:35:41.311Z,66.69
2023-04-26T23:38:08.517Z,66.69
2023-04-26T23:40:37.356Z,65.98
2023-04-26T23:43:06.264Z,67.30
2023-04-26T23:45:33.536Z,67.67
2023-04-26T23:48:00.886Z,66.87
2023-04-26T23:50:28.014Z,66.34
2023-04-26T23:52:55.116Z,66.92
2023-04-26T23:55:22.975Z,66.63
2023-04-26T23:57:49.994Z,67.39
